Time;durP1;ratioP1;P1;durP2;ratioP2;P2;SDS_P1;SDS_P2;PMS_P1;PMS_P2;Temp;Humidity;BMP_temperature;BMP_pressure;BME280_temperature;BME280_humidity;BME280_pressure;Samples;Min_cycle;Max_cycle;Signal;HPM_P1;HPM_P2
2021/12/19 00:00:04;;;;;;;32.85;18.63;;;;;;;1.98;76.10;100849.91;5069852;28;20024;-20
2021/12/19 00:10:27;;;;;;;19.92;11.80;;;;;;;2.08;75.15;100843.78;5069663;28;20121;-22
2021/12/19 00:12:53;;;;;;;32.20;22.17;;;;;;;1.84;75.92;100834.59;5069677;28;20062;-20
2021/12/19 00:15:19;;;;;;;21.50;12.45;;;;;;;2.10;75.29;100826.03;5069522;28;20458;-20
2021/12/19 00:17:44;;;;;;;38.28;24.48;;;;;;;1.80;75.81;100828.78;5069092;28;20033;-20
2021/12/19 00:20:10;;;;;;;21.27;13.18;;;;;;;2.10;75.58;100820.78;5069468;28;20037;-20
2021/12/19 00:22:36;;;;;;;22.85;13.77;;;;;;;1.86;76.21;100818.66;5069478;28;20470;-20
2021/12/19 00:25:01;;;;;;;25.40;14.23;;;;;;;2.05;75.16;100812.50;5051422;28;20037;-20
2021/12/19 00:27:27;;;;;;;23.58;14.63;;;;;;;2.09;75.04;100824.41;5069239;28;20063;-20
2021/12/19 00:29:52;;;;;;;20.10;11.50;;;;;;;1.59;76.35;100828.97;5069250;28;20048;-21
2021/12/19 00:32:18;;;;;;;22.85;12.40;;;;;;;1.65;75.94;100816.22;5068705;28;20412;-21
2021/12/19 00:34:43;;;;;;;20.02;10.93;;;;;;;1.38;76.85;100816.00;5069401;28;20040;-20
2021/12/19 00:37:10;;;;;;;17.88;10.70;;;;;;;1.92;75.49;100823.34;5069324;28;20036;-20
2021/12/19 00:39:35;;;;;;;18.13;10.82;;;;;;;1.69;75.64;100830.75;5050986;28;20507;-20
2021/12/19 00:42:04;;;;;;;20.42;11.85;;;;;;;1.71;75.60;100820.91;5069489;28;20036;-21
2021/12/19 00:44:32;;;;;;;18.70;11.27;;;;;;;1.74;75.60;100818.00;5069095;28;20028;-20
2021/12/19 00:47:05;;;;;;;21.67;10.93;;;;;;;1.50;75.59;100821.94;5069142;28;20028;-20
2021/12/19 00:49:31;;;;;;;18.65;10.93;;;;;;;1.12;77.55;100826.25;5068560;28;20475;-20
2021/12/19 00:51:56;;;;;;;23.98;11.98;;;;;;;1.27;78.38;100812.69;5068884;28;20078;-20
2021/12/19 00:54:22;;;;;;;20.42;11.20;;;;;;;1.57;76.80;100791.50;5050930;28;20036;-20
2021/12/19 00:56:48;;;;;;;20.35;10.95;;;;;;;1.15;77.65;100804.97;5068729;28;20511;-20
2021/12/19 00:59:14;;;;;;;23.38;11.85;;;;;;;1.06;79.18;100805.78;5068610;28;20040;-20
2021/12/19 01:01:39;;;;;;;24.67;13.80;;;;;;;1.13;78.65;100764.88;5068288;28;20031;-20
2021/12/19 01:04:07;;;;;;;24.33;13.60;;;;;;;1.30;78.59;100796.66;5068917;28;20109;-21
2021/12/19 01:06:32;;;;;;;22.95;11.95;;;;;;;1.47;76.39;100803.81;5068806;28;20060;-21
2021/12/19 01:08:58;;;;;;;19.08;11.55;;;;;;;1.33;76.59;100793.75;5068742;28;20064;-22
2021/12/19 01:11:23;;;;;;;22.83;12.18;;;;;;;1.18;77.10;100795.97;5050421;28;20064;-20
2021/12/19 01:13:49;;;;;;;20.48;11.95;;;;;;;1.29;76.12;100752.94;5050757;28;20433;-20
2021/12/19 01:16:15;;;;;;;22.33;13.35;;;;;;;0.55;77.86;100785.84;5050360;28;20023;-20
2021/12/19 01:18:41;;;;;;;21.27;13.05;;;;;;;0.19;80.67;100777.66;5068531;28;20468;-20
2021/12/19 01:21:07;;;;;;;23.15;14.35;;;;;;;0.67;79.23;100778.69;5068277;28;20039;-20
2021/12/19 01:23:32;;;;;;;26.48;14.52;;;;;;;1.05;77.99;100782.31;5068059;28;20036;-20
2021/12/19 01:25:57;;;;;;;29.30;14.75;;;;;;;0.70;79.02;100771.38;5068352;28;20036;-20
2021/12/19 01:28:23;;;;;;;25.65;14.55;;;;;;;0.84;78.80;100766.66;5067981;28;20534;-20
2021/12/19 01:30:49;;;;;;;24.52;14.25;;;;;;;0.83;78.09;100773.72;5068169;28;20032;-21
2021/12/19 01:33:14;;;;;;;27.52;15.30;;;;;;;0.80;79.38;100764.34;5068120;28;20032;-21
2021/12/19 01:35:40;;;;;;;27.15;16.17;;;;;;;0.84;79.14;100758.78;5067881;28;20055;-20
2021/12/19 01:38:05;;;;;;;31.02;19.33;;;;;;;0.70;79.67;100757.44;5068253;28;20070;-20
2021/12/19 01:40:30;;;;;;;32.28;17.45;;;;;;;0.18;81.24;100747.97;5068219;28;20028;-20
2021/12/19 01:42:56;;;;;;;27.77;16.48;;;;;;;0.03;81.15;100743.22;5067424;28;20040;-21
2021/12/19 01:45:27;;;;;;;26.25;15.98;;;;;;;0.28;81.05;100731.41;5068008;28;20111;-20
2021/12/19 01:47:53;;;;;;;26.65;14.95;;;;;;;0.13;80.90;100720.47;5068043;28;20024;-20
2021/12/19 01:50:18;;;;;;;27.70;15.63;;;;;;;0.09;80.38;100711.22;5049821;28;20043;-20
2021/12/19 01:52:44;;;;;;;28.52;15.40;;;;;;;0.07;81.81;100723.63;5067854;28;20033;-21
2021/12/19 01:55:10;;;;;;;27.33;15.50;;;;;;;0.51;80.50;100710.97;5050425;28;20036;-20
2021/12/19 01:57:35;;;;;;;27.58;16.90;;;;;;;0.48;79.79;100721.78;5067703;28;20036;-20
2021/12/19 02:00:03;;;;;;;28.85;15.90;;;;;;;0.79;78.02;100710.16;5068082;28;20804;-21
2021/12/19 02:02:28;;;;;;;24.75;15.02;;;;;;;1.01;77.58;100729.22;5067940;28;20242;-20
2021/12/19 02:04:54;;;;;;;31.35;16.45;;;;;;;0.31;78.71;100721.47;5068036;28;20036;-19
2021/12/19 02:07:19;;;;;;;34.92;19.77;;;;;;;-0.34;80.77;100696.63;5067990;28;20032;-21
2021/12/19 02:09:45;;;;;;;29.73;16.02;;;;;;;-0.57;81.17;100709.91;5067874;28;20028;-20
2021/12/19 02:12:10;;;;;;;29.00;16.95;;;;;;;-0.40;81.76;100705.81;5067743;28;20024;-20
2021/12/19 02:14:36;;;;;;;25.30;15.68;;;;;;;0.09;80.94;100712.03;5067737;28;20111;-21
2021/12/19 02:17:02;;;;;;;27.52;16.02;;;;;;;-0.19;80.79;100697.06;5067596;28;20025;-20
2021/12/19 02:19:29;;;;;;;24.98;14.90;;;;;;;0.07;80.09;100702.66;5067501;28;20507;-20
2021/12/19 02:21:55;;;;;;;24.77;13.87;;;;;;;-0.08;79.26;100700.41;5067637;28;20397;-21
2021/12/19 02:24:20;;;;;;;27.55;15.15;;;;;;;0.27;78.73;100700.91;5049872;28;20093;-20
2021/12/19 02:26:47;;;;;;;26.05;16.15;;;;;;;0.18;79.08;100697.28;5067776;28;20036;-21
2021/12/19 02:29:12;;;;;;;31.33;17.20;;;;;;;0.36;77.61;100682.53;5067414;28;20056;-20
2021/12/19 02:31:38;;;;;;;29.48;16.58;;;;;;;0.32;78.67;100681.13;5067396;28;20024;-20
2021/12/19 02:34:13;;;;;;;30.00;17.20;;;;;;;0.70;76.56;100676.88;5049895;28;20032;-20
2021/12/19 02:49:57;;;;;;;26.75;15.68;;;;;;;-0.79;80.65;100689.09;5067309;28;20101;-20
2021/12/19 02:52:23;;;;;;;30.58;16.70;;;;;;;-0.29;79.85;100686.53;5067917;28;20454;-20
2021/12/19 02:54:48;;;;;;;33.95;18.63;;;;;;;0.04;78.98;100681.94;5068460;28;20032;-20
2021/12/19 02:57:14;;;;;;;32.58;19.33;;;;;;;0.27;77.97;100680.75;5071093;28;20035;-20
2021/12/19 02:59:39;;;;;;;30.48;16.98;;;;;;;0.49;76.89;100679.66;5070858;28;20055;-20
2021/12/19 03:02:05;;;;;;;36.40;19.63;;;;;;;0.78;75.97;100684.06;5071108;28;20029;-20
2021/12/19 03:04:30;;;;;;;37.58;20.45;;;;;;;0.73;75.55;100687.06;5070795;28;20040;-20
2021/12/19 03:06:56;;;;;;;40.72;20.17;;;;;;;0.19;77.45;100670.09;5070770;28;20122;-21
2021/12/19 03:12:13;;;;;;;45.90;24.75;;;;;;;-0.48;80.55;100674.22;5070996;28;20036;-20
2021/12/19 03:20:08;;;;;;;45.65;23.38;;;;;;;0.11;78.76;100662.91;5070619;28;20520;-20
2021/12/19 03:22:34;;;;;;;43.88;24.08;;;;;;;0.52;77.43;100670.66;5070716;28;20029;-20
2021/12/19 03:24:59;;;;;;;45.38;23.98;;;;;;;0.43;76.05;100671.47;5070301;28;20024;-20
2021/12/19 03:27:25;;;;;;;45.83;24.08;;;;;;;0.51;76.55;100659.34;5070114;28;20028;-21
2021/12/19 03:29:50;;;;;;;35.70;21.42;;;;;;;0.45;75.88;100664.28;5070124;28;20056;-20
2021/12/19 03:32:16;;;;;;;37.75;20.75;;;;;;;0.44;76.82;100657.41;5070238;28;20039;-20
2021/12/19 03:34:41;;;;;;;39.70;20.90;;;;;;;0.51;76.07;100648.84;5070561;28;20043;-21
2021/12/19 03:37:07;;;;;;;52.40;27.35;;;;;;;-0.08;77.52;100655.00;5070564;28;20040;-21
2021/12/19 03:39:37;;;;;;;72.80;38.38;;;;;;;-0.25;79.69;100656.47;5052339;28;20032;-20
2021/12/19 03:42:04;;;;;;;58.15;32.70;;;;;;;0.14;78.20;100656.56;5070070;28;20025;-20
2021/12/19 03:44:29;;;;;;;39.88;21.98;;;;;;;0.36;76.88;100661.53;5070067;28;20411;-20
2021/12/19 03:46:55;;;;;;;34.03;20.05;;;;;;;0.29;77.81;100649.13;5070248;28;20039;-20
2021/12/19 03:49:20;;;;;;;46.55;26.05;;;;;;;0.51;76.19;100646.22;5070008;28;20040;-20
2021/12/19 03:51:46;;;;;;;45.55;25.73;;;;;;;0.32;75.96;100654.91;5069761;28;20058;-19
2021/12/19 03:54:12;;;;;;;47.67;27.08;;;;;;;-0.23;77.91;100654.56;5070025;28;20044;-20
2021/12/19 03:56:37;;;;;;;35.33;20.33;;;;;;;-0.05;77.94;100647.69;5069884;28;20032;-22
2021/12/19 03:59:03;;;;;;;33.70;19.20;;;;;;;-0.14;78.28;100634.56;5070388;28;20784;-21
2021/12/19 04:01:28;;;;;;;35.75;20.48;;;;;;;0.18;77.46;100644.81;5069627;28;20054;-20
2021/12/19 04:03:53;;;;;;;41.50;22.75;;;;;;;0.61;75.69;100630.44;5069761;28;20029;-20
2021/12/19 04:06:19;;;;;;;36.85;20.25;;;;;;;0.18;75.72;100629.09;5068953;28;20033;-20
2021/12/19 04:08:44;;;;;;;35.83;19.48;;;;;;;0.13;76.31;100629.50;5069591;28;20412;-21
2021/12/19 04:11:10;;;;;;;31.92;19.70;;;;;;;-0.31;77.84;100620.31;5069523;28;20028;-20
2021/12/19 04:13:35;;;;;;;31.73;17.38;;;;;;;-0.20;77.51;100625.47;5069310;28;20040;-20
2021/12/19 04:16:01;;;;;;;33.80;20.40;;;;;;;-0.35;77.84;100614.53;5069705;28;20036;-20
2021/12/19 04:18:26;;;;;;;46.60;23.63;;;;;;;-0.04;76.62;100617.91;5069472;28;20900;-20
2021/12/19 04:20:52;;;;;;;43.50;23.55;;;;;;;-0.18;76.64;100614.81;5069649;28;20025;-20
2021/12/19 04:23:17;;;;;;;43.33;23.02;;;;;;;-0.09;76.40;100614.03;5069273;28;20109;-21
2021/12/19 04:25:43;;;;;;;40.47;21.45;;;;;;;-0.08;76.20;100615.66;5069239;28;20036;-20
2021/12/19 04:28:08;;;;;;;38.25;22.02;;;;;;;-0.15;75.62;100606.72;5068964;28;20087;-20
2021/12/19 04:30:34;;;;;;;57.67;32.55;;;;;;;0.20;74.78;100611.41;5069401;28;20058;-22
2021/12/19 04:33:07;;;;;;;31.45;18.95;;;;;;;-0.05;75.95;100624.09;5051388;28;20854;-21
2021/12/19 04:35:34;;;;;;;56.83;30.38;;;;;;;-0.18;75.85;100615.69;5069115;28;20028;-20
2021/12/19 04:40:34;;;;;;;50.15;27.33;;;;;;;-0.26;76.25;100595.38;5068979;28;20114;-20
2021/12/19 04:57:03;;;;;;;27.08;14.88;;;;;;;-0.14;74.65;100601.34;5069109;28;19978;-20
2021/12/19 04:59:50;;;;;;;25.65;14.55;;;;;;;-0.19;74.79;100582.56;5036859;28;20433;-25
2021/12/19 05:15:51;;;;;;;69.88;35.95;;;;;;;-1.13;77.62;100592.47;5068791;28;20031;-20
2021/12/19 05:18:18;;;;;;;87.60;42.83;;;;;;;-1.03;77.70;100583.69;5068286;28;20105;-20
2021/12/19 05:20:55;;;;;;;77.97;37.55;;;;;;;-0.90;76.75;100591.34;5068176;28;20820;-20
2021/12/19 05:23:35;;;;;;;70.30;33.42;;;;;;;-0.79;75.82;100568.63;5068134;28;20035;-21
2021/12/19 05:26:01;;;;;;;50.55;26.67;;;;;;;-0.77;75.43;100579.81;5068302;28;20404;-20
2021/12/19 05:28:26;;;;;;;49.88;25.48;;;;;;;-0.55;76.43;100576.13;5067950;28;20056;-20
2021/12/19 05:30:52;;;;;;;39.45;22.83;;;;;;;-0.99;76.34;100578.22;5068419;28;20025;-20
2021/12/19 05:33:17;;;;;;;59.72;34.47;;;;;;;-1.56;81.53;100578.56;5068182;28;20039;-20
2021/12/19 05:46:21;;;;;;;31.02;17.88;;;;;;;-1.44;79.35;100568.88;5052998;28;20151;-20
2021/12/19 05:48:46;;;;;;;30.75;17.10;;;;;;;-1.38;79.23;100552.66;5068055;28;20513;-20
2021/12/19 05:51:11;;;;;;;29.00;16.20;;;;;;;-1.58;78.13;100579.66;5067896;28;20032;-20
2021/12/19 05:53:37;;;;;;;36.72;17.35;;;;;;;-0.98;77.37;100579.84;5067604;28;20028;-20
2021/12/19 05:56:03;;;;;;;29.35;15.57;;;;;;;-1.15;76.57;100562.97;5067823;28;20028;-20
2021/12/19 05:58:29;;;;;;;32.00;16.55;;;;;;;-0.74;75.90;100563.81;5067774;28;20077;-20
2021/12/19 06:00:54;;;;;;;30.55;17.45;;;;;;;-0.89;75.90;100566.81;5068450;28;20188;-20
2021/12/19 06:03:20;;;;;;;27.50;13.90;;;;;;;-1.09;77.82;100562.44;5067839;28;20123;-21
2021/12/19 06:05:45;;;;;;;27.33;14.75;;;;;;;-0.66;76.74;100574.47;5067667;28;20032;-22
2021/12/19 06:08:11;;;;;;;22.20;12.32;;;;;;;-0.84;75.74;100551.53;5049958;28;20044;-21
2021/12/19 06:10:36;;;;;;;24.77;12.43;;;;;;;-0.77;76.26;100569.34;5067610;28;20451;-21
2021/12/19 06:13:02;;;;;;;23.08;14.93;;;;;;;-0.82;75.05;100552.22;5067747;28;20039;-20
2021/12/19 06:15:27;;;;;;;46.40;25.25;;;;;;;-1.16;76.13;100561.34;5067562;28;20032;-20
2021/12/19 06:17:53;;;;;;;62.08;44.03;;;;;;;-1.67;78.93;100548.09;5067919;28;20064;-20
2021/12/19 06:20:18;;;;;;;70.55;41.90;;;;;;;-1.55;79.86;100551.47;5067548;28;20020;-20
2021/12/19 06:22:44;;;;;;;45.78;28.38;;;;;;;-1.27;79.08;100567.44;5067622;28;20033;-20
2021/12/19 06:25:09;;;;;;;38.00;23.98;;;;;;;-1.44;79.14;100547.94;5067741;28;20028;-20
2021/12/19 06:27:35;;;;;;;37.97;28.63;;;;;;;-1.29;79.28;100554.53;5049144;28;20036;-19
2021/12/19 06:30:00;;;;;;;24.90;17.23;;;;;;;-1.35;79.50;100539.31;5068920;28;20123;-21
2021/12/19 06:32:26;;;;;;;35.85;21.08;;;;;;;-1.50;80.34;100530.16;5071666;28;20036;-20
2021/12/19 06:34:51;;;;;;;18.98;12.35;;;;;;;-1.06;79.23;100551.72;5071522;28;20032;-20
2021/12/19 06:37:17;;;;;;;19.77;11.27;;;;;;;-1.06;80.01;100564.81;5071450;28;20033;-21
2021/12/19 06:39:42;;;;;;;18.65;10.63;;;;;;;-1.08;79.77;100558.88;5071745;28;20040;-20
2021/12/19 06:42:08;;;;;;;21.65;11.77;;;;;;;-0.94;79.26;100529.72;5071226;28;20037;-20
2021/12/19 06:44:34;;;;;;;17.02;10.48;;;;;;;-0.84;79.48;100548.91;5071606;28;20039;-20
2021/12/19 06:47:00;;;;;;;83.72;45.65;;;;;;;-0.55;78.59;100556.03;5071378;28;20115;-20
2021/12/19 06:49:25;;;;;;;29.85;21.50;;;;;;;-0.56;78.80;100532.56;5071051;28;20104;-20
2021/12/19 06:51:51;;;;;;;70.63;56.60;;;;;;;-0.25;77.16;100535.91;5071010;28;20055;-22
2021/12/19 06:54:16;;;;;;;24.42;15.88;;;;;;;0.15;76.20;100532.34;5071136;28;20028;-21
2021/12/19 06:56:42;;;;;;;48.17;39.72;;;;;;;0.48;74.95;100548.56;5053099;28;20036;-20
2021/12/19 06:59:07;;;;;;;14.82;9.43;;;;;;;0.79;74.26;100547.38;5071043;28;20029;-20
2021/12/19 07:01:33;;;;;;;15.55;8.30;;;;;;;0.76;73.02;100534.53;5070752;28;20025;-20
2021/12/19 07:03:58;;;;;;;16.67;8.32;;;;;;;0.78;73.86;100534.41;5070863;28;20403;-20
2021/12/19 07:06:24;;;;;;;14.80;9.48;;;;;;;0.71;73.84;100517.56;5070927;28;20035;-20
2021/12/19 07:08:49;;;;;;;14.30;9.52;;;;;;;1.04;73.31;100534.56;5053126;28;20063;-20
2021/12/19 07:11:15;;;;;;;15.70;8.73;;;;;;;1.23;73.22;100538.06;5070727;28;20094;-21
2021/12/19 07:13:40;;;;;;;15.38;9.13;;;;;;;1.00;73.39;100538.44;5052739;28;20129;-21
2021/12/19 07:16:07;;;;;;;16.48;9.82;;;;;;;1.38;72.82;100532.16;5071095;28;20036;-20
2021/12/19 07:18:32;;;;;;;33.40;13.65;;;;;;;1.27;73.14;100539.41;5053116;28;20909;-24
2021/12/19 07:20:58;;;;;;;41.30;16.02;;;;;;;1.18;73.62;100523.56;5070447;28;20547;-21
2021/12/19 07:23:23;;;;;;;21.65;10.20;;;;;;;1.42;73.31;100530.06;5070346;28;20032;-21
2021/12/19 07:25:49;;;;;;;25.65;11.60;;;;;;;1.55;72.93;100527.94;5070346;28;20036;-20
2021/12/19 07:28:15;;;;;;;65.53;23.40;;;;;;;1.36;73.19;100536.75;5052540;28;20052;-20
2021/12/19 07:30:40;;;;;;;55.97;20.13;;;;;;;1.42;72.68;100532.69;5070294;28;20029;-20
2021/12/19 07:33:09;;;;;;;93.82;29.88;;;;;;;1.18;74.01;100509.59;5070496;28;20043;-20
2021/12/19 07:35:37;;;;;;;32.33;12.75;;;;;;;1.68;73.95;100516.22;5052078;28;20506;-20
2021/12/19 07:38:03;;;;;;;24.60;13.98;;;;;;;2.11;71.89;100533.03;5070369;28;20397;-21
2021/12/19 07:40:35;;;;;;;15.60;9.10;;;;;;;1.89;72.34;100503.56;5069795;28;20027;-20
2021/12/19 07:43:03;;;;;;;58.42;18.80;;;;;;;2.00;72.54;100527.03;5069691;28;20512;-21
2021/12/19 07:45:30;;;;;;;88.40;27.48;;;;;;;2.08;71.92;100507.00;5070193;28;20036;-21
2021/12/19 07:47:55;;;;;;;85.05;31.25;;;;;;;2.44;71.12;100506.94;5069930;28;20090;-20
2021/12/19 07:50:21;;;;;;;54.80;23.38;;;;;;;2.64;71.02;100513.66;5070261;28;20028;-20
2021/12/19 07:52:47;;;;;;;72.05;27.55;;;;;;;2.34;70.02;100504.41;5070218;28;20040;-20
2021/12/19 07:55:12;;;;;;;53.75;22.92;;;;;;;2.77;70.45;100511.41;5069981;28;20032;-20
2021/12/19 07:57:38;;;;;;;69.15;23.70;;;;;;;2.84;70.13;100510.78;5070019;28;20032;-21
2021/12/19 08:00:04;;;;;;;62.92;21.73;;;;;;;2.77;69.93;100498.22;5070098;28;20032;-21
2021/12/19 08:02:30;;;;;;;79.00;25.77;;;;;;;2.90;70.27;100505.72;5052090;28;20093;-20
2021/12/19 08:04:55;;;;;;;84.82;27.08;;;;;;;2.95;69.45;100505.22;5069890;28;20040;-20
2021/12/19 08:07:23;;;;;;;36.13;16.02;;;;;;;2.78;69.40;100497.25;5069707;28;20043;-20
2021/12/19 08:12:24;;;;;;;27.90;14.38;;;;;;;2.98;71.10;100504.91;5069862;28;20135;-20
2021/12/19 08:14:49;;;;;;;34.90;20.30;;;;;;;2.95;71.84;100499.97;5069797;28;20103;-20
2021/12/19 08:17:14;;;;;;;26.20;15.52;;;;;;;2.83;71.99;100495.97;5051664;28;20028;-20
2021/12/19 08:19:40;;;;;;;20.00;11.93;;;;;;;2.84;72.12;100487.06;5069116;28;20413;-20
2021/12/19 08:22:05;;;;;;;26.40;14.75;;;;;;;3.07;71.19;100448.63;5069433;28;20032;-21
2021/12/19 08:24:31;;;;;;;18.65;11.75;;;;;;;3.10;70.61;100477.28;5069518;28;20412;-21
2021/12/19 08:26:56;;;;;;;20.85;11.65;;;;;;;3.00;71.00;100464.25;5051500;28;20103;-20
2021/12/19 08:29:22;;;;;;;32.75;16.77;;;;;;;3.36;69.79;100457.91;5069525;28;20094;-20
2021/12/19 08:31:47;;;;;;;18.35;10.48;;;;;;;3.34;67.12;100467.81;5051070;28;20040;-20
2021/12/19 08:34:13;;;;;;;19.27;11.00;;;;;;;3.56;68.04;100467.19;5069755;28;20439;-20
2021/12/19 08:36:38;;;;;;;21.98;12.75;;;;;;;3.38;68.93;100437.50;5069139;28;20454;-21
2021/12/19 08:39:04;;;;;;;16.67;9.80;;;;;;;3.46;68.74;100466.50;5069647;28;20068;-22
2021/12/19 08:41:30;;;;;;;16.75;9.50;;;;;;;3.79;68.00;100456.78;5069293;28;20079;-20
2021/12/19 08:43:55;;;;;;;15.30;9.20;;;;;;;4.18;66.17;100447.38;5069279;28;20039;-20
2021/12/19 08:46:21;;;;;;;13.00;7.68;;;;;;;3.96;65.92;100444.44;5069107;28;20086;-20
2021/12/19 08:48:46;;;;;;;19.02;11.27;;;;;;;3.95;67.68;100429.59;5069056;28;20039;-20
2021/12/19 08:51:11;;;;;;;14.32;9.32;;;;;;;3.90;66.88;100436.34;5068801;28;20028;-20
2021/12/19 08:53:38;;;;;;;39.60;20.40;;;;;;;4.24;65.60;100441.41;5068690;28;20476;-20
2021/12/19 08:56:03;;;;;;;61.22;31.83;;;;;;;4.21;65.99;100410.91;5051165;28;20039;-20
2021/12/19 08:58:29;;;;;;;19.73;10.75;;;;;;;4.41;65.36;100429.84;5050954;28;20036;-22
2021/12/19 09:01:01;;;;;;;33.78;21.15;;;;;;;4.93;64.37;100431.09;5068634;28;20024;-20
2021/12/19 09:03:28;;;;;;;18.98;10.40;;;;;;;4.97;62.96;100419.19;5068386;28;20028;-20
2021/12/19 09:05:54;;;;;;;19.13;11.27;;;;;;;5.19;60.30;100422.03;5068692;28;20035;-21
2021/12/19 09:08:19;;;;;;;13.63;7.18;;;;;;;4.50;60.24;100411.31;5068715;28;20040;-20
2021/12/19 09:10:45;;;;;;;16.83;8.43;;;;;;;4.44;62.01;100412.81;5068483;28;20033;-20
2021/12/19 09:13:10;;;;;;;13.73;7.50;;;;;;;4.54;60.11;100394.13;5068704;28;20036;-20
2021/12/19 09:15:36;;;;;;;17.75;8.20;;;;;;;4.50;60.00;100398.94;5068381;28;20101;-20
2021/12/19 09:18:01;;;;;;;13.77;7.22;;;;;;;4.40;60.30;100371.91;5068835;28;20037;-20
2021/12/19 09:20:27;;;;;;;9.60;6.05;;;;;;;4.42;59.53;100383.94;5068274;28;20059;-21
2021/12/19 09:22:52;;;;;;;12.73;6.43;;;;;;;4.19;59.93;100359.28;5068641;28;20085;-20
2021/12/19 09:25:19;;;;;;;11.75;6.03;;;;;;;4.43;59.69;100364.47;5068864;28;20392;-19
2021/12/19 09:27:51;;;;;;;13.70;7.40;;;;;;;4.68;60.13;100367.00;5067994;28;20037;-20
2021/12/19 09:30:16;;;;;;;13.18;7.05;;;;;;;4.64;57.27;100355.13;5068110;28;20045;-19
2021/12/19 09:32:42;;;;;;;13.20;7.05;;;;;;;4.60;58.27;100337.97;5068311;28;20021;-21
2021/12/19 09:35:10;;;;;;;11.93;7.72;;;;;;;4.51;58.66;100334.53;5068159;28;20055;-20
2021/12/19 09:37:35;;;;;;;11.70;6.47;;;;;;;4.57;59.41;100319.81;5068081;28;20024;-20
2021/12/19 09:40:06;;;;;;;11.30;6.50;;;;;;;5.04;58.72;100309.09;5068301;28;20078;-20
2021/12/19 09:42:34;;;;;;;11.82;6.15;;;;;;;5.27;57.17;100332.09;5068043;28;20149;-20
2021/12/19 09:45:01;;;;;;;7.80;4.75;;;;;;;5.06;56.12;100306.28;5068227;28;20075;-19
2021/12/19 09:47:27;;;;;;;7.93;5.22;;;;;;;5.05;57.88;100325.81;5067648;28;20086;-20
2021/12/19 09:49:53;;;;;;;8.52;5.05;;;;;;;4.71;57.87;100302.41;5067745;28;20139;-20
2021/12/19 09:52:18;;;;;;;10.48;6.22;;;;;;;5.09;57.79;100311.25;5067581;28;20451;-20
2021/12/19 09:54:44;;;;;;;9.32;5.68;;;;;;;4.83;57.59;100299.19;5068293;28;20090;-20
2021/12/19 09:57:09;;;;;;;8.70;5.40;;;;;;;5.00;58.82;100301.72;5049859;28;20039;-20
2021/12/19 09:59:35;;;;;;;7.18;4.55;;;;;;;5.03;56.87;100290.81;5067767;28;20094;-20
2021/12/19 10:02:00;;;;;;;8.65;5.30;;;;;;;5.04;57.17;100290.59;5068110;28;20045;-20
2021/12/19 10:04:45;;;;;;;8.73;4.88;;;;;;;5.46;56.79;100280.53;5067122;28;20485;-20
2021/12/19 10:07:20;;;;;;;6.85;4.30;;;;;;;5.13;55.78;100280.81;5068317;28;20032;-20
2021/12/19 10:10:12;;;;;;;8.23;4.53;;;;;;;4.98;55.99;100272.00;5067614;28;20041;-20
2021/12/19 10:12:48;;;;;;;7.90;4.32;;;;;;;5.09;56.56;100276.88;5067942;28;20508;-19
2021/12/19 10:15:14;;;;;;;7.80;4.15;;;;;;;5.36;56.04;100275.47;5067729;28;20500;-19
2021/12/19 10:17:39;;;;;;;8.15;5.00;;;;;;;5.27;55.98;100250.13;5067441;28;20039;-20
2021/12/19 10:20:13;;;;;;;9.63;5.30;;;;;;;5.37;56.79;100266.56;5067482;28;20054;-20
2021/12/19 10:22:43;;;;;;;10.80;5.35;;;;;;;5.68;56.00;100248.88;5067668;28;20115;-21
2021/12/19 10:25:09;;;;;;;10.18;5.10;;;;;;;5.75;54.93;100263.03;5067465;28;20024;-20
2021/12/19 10:27:35;;;;;;;9.75;5.60;;;;;;;6.18;55.55;100258.72;5067443;28;20082;-20
2021/12/19 10:30:02;;;;;;;8.80;4.82;;;;;;;6.21;54.71;100238.97;5067564;28;20060;-20
2021/12/19 10:32:28;;;;;;;9.27;4.60;;;;;;;6.49;53.77;100233.81;5067773;28;20052;-20
2021/12/19 10:35:17;;;;;;;9.15;5.75;;;;;;;6.50;53.00;100237.25;5067456;28;20054;-19
2021/12/19 10:37:43;;;;;;;7.65;4.82;;;;;;;6.33;52.32;100236.69;5049400;28;20021;-19
2021/12/19 10:40:09;;;;;;;12.40;6.38;;;;;;;6.43;53.30;100216.81;5049841;28;20100;-19
2021/12/19 10:42:48;;;;;;;11.52;6.15;;;;;;;6.27;53.79;100201.16;5067504;28;20111;-20
2021/12/19 10:45:29;;;;;;;11.20;6.80;;;;;;;6.96;52.18;100231.59;5067415;28;20028;-19
2021/12/19 10:48:16;;;;;;;9.88;5.75;;;;;;;6.43;53.48;100221.31;5067236;28;20488;-19
2021/12/19 10:50:53;;;;;;;8.07;5.15;;;;;;;6.42;53.22;100191.34;5056517;28;20044;-20
2021/12/19 10:53:19;;;;;;;11.20;5.68;;;;;;;6.24;54.10;100206.84;5067232;28;20033;-19
2021/12/19 10:55:46;;;;;;;8.50;4.80;;;;;;;6.17;54.87;100192.69;5067060;28;20116;-19
2021/12/19 10:58:25;;;;;;;10.98;5.95;;;;;;;6.29;54.65;100206.28;5067216;28;20028;-20
2021/12/19 11:01:18;;;;;;;8.15;5.35;;;;;;;6.43;53.61;100153.25;5067246;28;20047;-20
2021/12/19 11:03:49;;;;;;;9.18;5.72;;;;;;;6.57;54.67;100166.63;5067076;28;20039;-20
2021/12/19 11:06:30;;;;;;;10.20;5.55;;;;;;;7.18;53.44;100171.38;5067400;28;20085;-20
2021/12/19 11:08:56;;;;;;;8.80;5.60;;;;;;;6.86;52.95;100154.22;5067254;28;20035;-20
2021/12/19 11:11:57;;;;;;;9.80;5.68;;;;;;;6.95;52.72;100163.69;5067367;28;20033;-20
2021/12/19 11:14:44;;;;;;;13.32;7.28;;;;;;;6.74;53.20;100151.28;5056267;28;20047;-20
2021/12/19 11:17:20;;;;;;;11.35;6.53;;;;;;;7.18;53.59;100147.53;5069811;28;20547;-19
2021/12/19 11:19:47;;;;;;;10.32;6.20;;;;;;;7.32;53.39;100137.81;5070673;28;20862;-19
2021/12/19 11:22:13;;;;;;;13.13;7.13;;;;;;;7.36;50.52;100144.38;5070789;28;20027;-19
2021/12/19 11:24:38;;;;;;;10.55;6.32;;;;;;;7.06;52.52;100136.63;5070372;28;20093;-19
2021/12/19 11:27:07;;;;;;;10.05;6.88;;;;;;;7.33;52.18;100134.94;5070650;28;20037;-19
2021/12/19 11:29:32;;;;;;;11.40;7.25;;;;;;;7.69;51.66;100114.50;5069945;28;20060;-19
2021/12/19 11:32:05;;;;;;;12.68;8.25;;;;;;;8.02;51.35;100127.88;5070513;28;20116;-20
2021/12/19 11:34:53;;;;;;;12.02;6.75;;;;;;;7.51;50.14;100128.31;5070422;28;20028;-21
2021/12/19 11:37:23;;;;;;;13.48;8.27;;;;;;;7.34;52.29;100118.03;5070251;28;20495;-21
2021/12/19 11:39:50;;;;;;;8.80;5.00;;;;;;;7.28;50.90;100099.44;5036820;28;20040;-20
2021/12/19 11:42:21;;;;;;;14.27;7.63;;;;;;;7.63;52.54;100108.97;5070134;28;20056;-20
2021/12/19 11:47:56;;;;;;;15.53;7.40;;;;;;;7.87;50.55;100096.19;5069922;28;20052;-20
2021/12/19 11:50:27;;;;;;;14.27;7.93;;;;;;;7.90;49.85;100093.13;5070204;28;20079;-20
2021/12/19 11:52:55;;;;;;;14.30;8.50;;;;;;;8.09;48.88;100085.38;5070316;28;20144;-20
2021/12/19 11:55:24;;;;;;;14.30;8.73;;;;;;;8.05;49.47;100082.34;5070255;28;20097;-19
2021/12/19 11:58:08;;;;;;;11.70;7.88;;;;;;;7.44;49.81;100069.91;5069991;28;20048;-20
2021/12/19 12:00:38;;;;;;;12.35;6.60;;;;;;;7.75;50.44;100039.38;5069921;28;20097;-20
2021/12/19 12:03:13;;;;;;;10.48;7.35;;;;;;;7.83;49.37;100068.41;5069967;28;20392;-20
2021/12/19 12:05:45;;;;;;;13.00;7.72;;;;;;;7.58;49.66;100042.41;5070047;28;20039;-20
2021/12/19 12:08:13;;;;;;;12.18;6.93;;;;;;;8.32;48.77;100053.94;5069731;28;20044;-20
2021/12/19 12:10:47;;;;;;;11.93;6.47;;;;;;;8.47;47.89;100051.13;5069535;28;20543;-21
2021/12/19 12:13:32;;;;;;;14.18;7.95;;;;;;;9.12;46.91;100047.75;5069601;28;20028;-20
2021/12/19 12:16:19;;;;;;;14.30;6.93;;;;;;;8.66;47.18;100054.78;5069165;28;20039;-20
2021/12/19 12:18:45;;;;;;;13.05;8.13;;;;;;;8.51;46.33;100006.34;5069452;28;20036;-20
2021/12/19 12:21:26;;;;;;;8.77;5.15;;;;;;;8.40;47.03;100043.13;5069711;28;20064;-20
2021/12/19 12:23:57;;;;;;;10.75;7.07;;;;;;;9.20;47.16;100045.66;5069436;28;20029;-20
2021/12/19 12:26:38;;;;;;;13.05;8.20;;;;;;;9.99;43.53;100040.97;5069345;28;20017;-19
2021/12/19 12:29:04;;;;;;;12.63;7.25;;;;;;;9.37;44.08;100013.25;5068680;28;20092;-25
2021/12/19 12:31:29;;;;;;;13.48;7.65;;;;;;;9.34;44.20;100035.78;5069215;28;20032;-20
2021/12/19 12:33:55;;;;;;;13.23;8.02;;;;;;;9.93;44.35;100009.84;5069218;28;20115;-20
2021/12/19 12:36:21;;;;;;;12.40;7.63;;;;;;;10.61;43.09;100033.09;5051372;28;20028;-19